createdAt,value
2022-11-07T00:00:20.364Z,55.11
2022-11-07T00:02:46.787Z,55.20
2022-11-07T00:05:13.202Z,55.33
2022-11-07T00:07:39.558Z,55.31
2022-11-07T00:10:06.824Z,55.20
2022-11-07T00:12:36.392Z,55.54
2022-11-07T00:15:05.192Z,55.52
2022-11-07T00:17:32.035Z,55.74
2022-11-07T00:19:58.434Z,55.51
2022-11-07T00:22:24.912Z,55.60
2022-11-07T00:24:51.320Z,55.60
2022-11-07T00:27:17.792Z,55.64
2022-11-07T00:29:44.295Z,55.93
2022-11-07T00:32:10.672Z,55.86
2022-11-07T00:34:37.001Z,55.60
2022-11-07T00:37:03.388Z,55.84
2022-11-07T00:39:29.737Z,55.91
2022-11-07T00:41:56.062Z,56.03
2022-11-07T00:44:22.782Z,55.96
2022-11-07T00:46:49.310Z,56.03
2022-11-07T00:49:15.663Z,56.12
2022-11-07T00:51:42.515Z,56.11
2022-11-07T00:54:08.873Z,56.19
2022-11-07T00:56:35.240Z,56.38
2022-11-07T00:59:01.621Z,56.30
2022-11-07T01:01:30.630Z,56.41
2022-11-07T01:04:16.182Z,56.38
2022-11-07T01:06:44.645Z,56.35
2022-11-07T01:09:14.975Z,56.34
2022-11-07T01:11:41.712Z,56.47
2022-11-07T01:14:09.139Z,56.46
2022-11-07T01:16:35.946Z,56.46
2022-11-07T01:19:03.443Z,56.55
2022-11-07T01:21:30.448Z,56.71
2022-11-07T01:23:57.337Z,56.57
2022-11-07T01:26:23.753Z,56.33
2022-11-07T01:28:50.105Z,56.68
2022-11-07T01:31:17.695Z,56.74
2022-11-07T01:33:44.497Z,56.69
2022-11-07T01:36:14.918Z,56.53
2022-11-07T01:38:44.776Z,56.61
2022-11-07T01:41:27.071Z,56.46
2022-11-07T01:44:08.812Z,56.33
2022-11-07T01:46:45.368Z,56.67
2022-11-07T01:49:36.119Z,56.78
2022-11-07T01:52:08.376Z,56.66
2022-11-07T01:54:41.703Z,57.01
2022-11-07T01:57:13.988Z,56.96
2022-11-07T01:59:40.969Z,56.96
2022-11-07T02:02:08.704Z,56.99
2022-11-07T02:04:36.193Z,56.86
2022-11-07T02:07:15.626Z,56.91
2022-11-07T02:09:43.428Z,57.06
2022-11-07T02:12:10.056Z,56.85
2022-11-07T02:14:36.463Z,57.01
2022-11-07T02:17:02.962Z,56.78
2022-11-07T02:19:35.989Z,56.70
2022-11-07T02:22:11.263Z,56.85
2022-11-07T02:24:38.806Z,56.81
2022-11-07T02:27:11.685Z,56.78
2022-11-07T02:29:40.282Z,57.00
2022-11-07T02:32:09.945Z,57.00
2022-11-07T02:34:36.786Z,57.19
2022-11-07T02:37:12.075Z,57.21
2022-11-07T02:39:38.417Z,56.91
2022-11-07T02:42:06.375Z,57.03
2022-11-07T02:44:33.930Z,57.06
2022-11-07T02:47:00.346Z,57.06
2022-11-07T02:49:26.777Z,56.98
2022-11-07T02:51:53.126Z,56.80
2022-11-07T02:54:19.462Z,57.06
2022-11-07T02:56:45.772Z,56.99
2022-11-07T02:59:12.261Z,57.14
2022-11-07T03:01:38.770Z,57.16
2022-11-07T03:04:05.245Z,57.29
2022-11-07T03:06:31.674Z,57.48
2022-11-07T03:08:58.036Z,57.51
2022-11-07T03:11:24.386Z,57.73
2022-11-07T03:13:50.728Z,57.63
2022-11-07T03:16:18.844Z,57.70
2022-11-07T03:18:45.221Z,57.89
2022-11-07T03:21:11.646Z,57.70
2022-11-07T03:23:38.123Z,57.63
2022-11-07T03:26:05.214Z,57.58
2022-11-07T03:28:32.638Z,57.67
2022-11-07T03:31:04.335Z,57.62
2022-11-07T03:33:31.224Z,57.89
2022-11-07T03:35:57.636Z,57.73
2022-11-07T03:38:24.001Z,57.64
2022-11-07T03:40:50.515Z,57.40
2022-11-07T03:43:17.183Z,57.73
2022-11-07T03:45:43.867Z,57.77
2022-11-07T03:48:10.247Z,57.63
2022-11-07T03:50:36.660Z,57.43
2022-11-07T03:53:02.994Z,57.52
2022-11-07T03:55:29.338Z,57.80
2022-11-07T03:57:55.720Z,57.52
2022-11-07T04:00:22.201Z,57.43
2022-11-07T04:02:48.659Z,57.32
2022-11-07T04:05:15.200Z,57.48
2022-11-07T04:07:41.586Z,57.45
2022-11-07T04:10:08.128Z,57.57
2022-11-07T04:12:53.029Z,57.37
2022-11-07T04:15:38.000Z,57.47
2022-11-07T04:18:04.441Z,57.28
2022-11-07T04:20:30.826Z,57.32
2022-11-07T04:22:57.303Z,57.48
2022-11-07T04:25:43.611Z,57.56
2022-11-07T04:28:09.993Z,57.59
2022-11-07T04:30:36.328Z,57.58
2022-11-07T04:33:03.086Z,57.71
2022-11-07T04:35:31.673Z,57.61
2022-11-07T04:37:59.489Z,57.64
2022-11-07T04:40:26.701Z,57.77
2022-11-07T04:42:53.744Z,57.70
2022-11-07T04:45:20.231Z,57.63
2022-11-07T04:47:46.855Z,57.83
2022-11-07T04:50:16.207Z,57.82
2022-11-07T04:52:42.786Z,57.71
2022-11-07T04:55:19.512Z,58.18
2022-11-07T04:57:45.897Z,57.84
2022-11-07T05:00:12.729Z,57.95
2022-11-07T05:02:39.269Z,57.81
2022-11-07T05:05:06.238Z,57.86
2022-11-07T05:07:32.573Z,57.92
2022-11-07T05:09:59.157Z,57.96
2022-11-07T05:12:25.507Z,57.87
2022-11-07T05:14:51.829Z,57.71
2022-11-07T05:17:18.524Z,57.88
2022-11-07T05:19:45.140Z,57.86
2022-11-07T05:22:30.262Z,57.70
2022-11-07T05:24:56.621Z,57.80
2022-11-07T05:27:24.076Z,57.92
2022-11-07T05:29:50.861Z,57.98
2022-11-07T05:32:17.505Z,58.13
2022-11-07T05:34:43.894Z,57.95
2022-11-07T05:37:12.112Z,58.07
2022-11-07T05:39:38.639Z,58.08
2022-11-07T05:42:05.307Z,58.21
2022-11-07T05:44:31.816Z,58.06
2022-11-07T05:46:58.853Z,58.20
2022-11-07T05:49:25.748Z,58.15
2022-11-07T05:51:52.519Z,58.19
2022-11-07T05:54:19.003Z,57.97
2022-11-07T05:56:45.421Z,58.33
2022-11-07T05:59:12.457Z,58.04
2022-11-07T06:01:39.069Z,58.16
2022-11-07T06:04:06.932Z,58.19
2022-11-07T06:06:33.385Z,58.43
2022-11-07T06:08:59.778Z,58.10
2022-11-07T06:11:26.156Z,58.09
2022-11-07T06:13:54.365Z,58.08
2022-11-07T06:16:20.898Z,58.10
2022-11-07T06:18:47.293Z,57.88
2022-11-07T06:21:14.392Z,57.71
2022-11-07T06:23:40.828Z,57.99
2022-11-07T06:26:07.247Z,57.71
2022-11-07T06:28:33.703Z,57.93
2022-11-07T06:31:00.946Z,57.78
2022-11-07T06:33:27.324Z,57.80
2022-11-07T06:35:53.660Z,58.21
2022-11-07T06:38:20.825Z,57.73
2022-11-07T06:40:47.276Z,57.98
2022-11-07T06:43:16.616Z,58.07
2022-11-07T06:45:44.510Z,57.96
2022-11-07T06:48:11.797Z,58.01
2022-11-07T06:50:38.922Z,58.07
2022-11-07T06:53:07.834Z,57.99
2022-11-07T06:55:36.113Z,57.96
2022-11-07T06:58:03.636Z,57.83
2022-11-07T07:00:33.069Z,58.03
2022-11-07T07:02:59.661Z,57.95
2022-11-07T07:05:26.721Z,57.91
2022-11-07T07:07:55.127Z,58.00
2022-11-07T07:10:21.877Z,57.78
2022-11-07T07:12:48.251Z,57.70
2022-11-07T07:15:14.708Z,57.80
2022-11-07T07:17:41.123Z,57.68
2022-11-07T07:20:08.370Z,57.63
2022-11-07T07:22:34.787Z,58.04
2022-11-07T07:25:01.193Z,57.71
2022-11-07T07:27:27.606Z,57.79
2022-11-07T07:29:53.938Z,57.70
2022-11-07T07:32:20.897Z,57.57
2022-11-07T07:34:47.267Z,57.67
2022-11-07T07:37:13.641Z,57.48
2022-11-07T07:39:40.013Z,57.26
2022-11-07T07:42:06.401Z,57.40
2022-11-07T07:44:32.778Z,57.21
2022-11-07T07:46:59.109Z,57.52
2022-11-07T07:49:25.428Z,57.76
2022-11-07T07:51:51.766Z,57.61
2022-11-07T07:54:18.134Z,57.70
2022-11-07T07:56:44.483Z,57.49
2022-11-07T07:59:10.868Z,57.36
2022-11-07T08:01:37.354Z,57.54
2022-11-07T08:04:03.908Z,57.30
2022-11-07T08:06:30.430Z,57.43
2022-11-07T08:08:56.896Z,57.24
2022-11-07T08:11:23.417Z,57.23
2022-11-07T08:13:49.781Z,57.31
2022-11-07T08:16:16.443Z,57.17
2022-11-07T08:18:42.809Z,57.33
2022-11-07T08:21:09.135Z,57.17
2022-11-07T08:23:36.242Z,57.21
2022-11-07T08:26:04.304Z,57.00
2022-11-07T08:28:44.045Z,57.09
2022-11-07T08:31:12.014Z,57.28
2022-11-07T08:33:39.375Z,56.79
2022-11-07T08:36:06.967Z,56.87
2022-11-07T08:38:35.431Z,56.91
2022-11-07T08:41:02.668Z,56.78
2022-11-07T08:43:29.454Z,56.69
2022-11-07T08:45:55.892Z,56.78
2022-11-07T08:48:22.829Z,56.90
2022-11-07T08:50:57.308Z,56.85
2022-11-07T08:53:25.106Z,56.59
2022-11-07T08:55:51.958Z,56.50
2022-11-07T08:58:19.135Z,56.53
2022-11-07T09:00:46.180Z,56.47
2022-11-07T09:06:00.268Z,56.54
2022-11-07T09:08:26.596Z,56.62
2022-11-07T09:10:52.938Z,56.44
2022-11-07T09:13:20.856Z,56.58
2022-11-07T09:15:50.955Z,56.45
2022-11-07T09:18:18.804Z,56.19
2022-11-07T09:20:45.257Z,56.12
2022-11-07T09:23:11.654Z,56.24
2022-11-07T09:25:38.037Z,55.96
2022-11-07T09:28:04.684Z,56.20
2022-11-07T09:30:31.486Z,56.24
2022-11-07T09:32:58.258Z,56.32
2022-11-07T09:35:24.614Z,56.36
2022-11-07T09:37:51.743Z,56.05
2022-11-07T09:40:43.446Z,56.43
2022-11-07T09:43:30.889Z,56.04
2022-11-07T09:46:08.627Z,56.15
2022-11-07T09:48:45.271Z,56.36
2022-11-07T09:51:18.650Z,56.30
2022-11-07T09:53:50.869Z,56.12
2022-11-07T09:56:17.343Z,56.11
2022-11-07T09:58:47.312Z,56.45
2022-11-07T10:01:16.877Z,56.77
2022-11-07T10:04:17.676Z,56.52
2022-11-07T10:06:46.224Z,56.13
2022-11-07T10:09:32.113Z,55.74
2022-11-07T10:12:21.156Z,55.64
2022-11-07T10:15:16.322Z,55.53
2022-11-07T10:17:57.521Z,55.30
2022-11-07T10:21:10.175Z,55.53
2022-11-07T10:24:01.230Z,55.37
2022-11-07T10:26:28.789Z,54.86
2022-11-07T10:29:02.716Z,54.79
2022-11-07T10:31:40.010Z,54.72
2022-11-07T10:34:20.090Z,54.80
2022-11-07T10:36:46.435Z,54.59
2022-11-07T10:39:18.877Z,54.95
2022-11-07T10:42:10.894Z,54.47
2022-11-07T10:44:40.290Z,54.49
2022-11-07T10:47:21.483Z,54.42
2022-11-07T10:49:56.259Z,54.59
2022-11-07T10:52:24.598Z,54.32
2022-11-07T10:54:51.133Z,54.31
2022-11-07T10:57:22.187Z,54.47
2022-11-07T10:59:51.751Z,54.50
2022-11-07T11:02:22.065Z,54.33
2022-11-07T11:04:54.551Z,54.13
2022-11-07T11:07:28.352Z,54.07
2022-11-07T11:09:57.760Z,54.05
2022-11-07T11:12:34.743Z,54.16
2022-11-07T11:15:14.452Z,53.90
2022-11-07T11:17:41.042Z,53.53
2022-11-07T11:20:28.518Z,54.04
2022-11-07T11:22:54.984Z,54.03
2022-11-07T11:25:22.228Z,53.61
2022-11-07T11:27:54.879Z,53.65
2022-11-07T11:30:22.093Z,53.51
2022-11-07T11:33:04.013Z,53.70
2022-11-07T11:35:36.319Z,53.70
2022-11-07T11:38:11.830Z,53.61
2022-11-07T11:40:41.613Z,53.37
2022-11-07T11:43:19.486Z,53.75
2022-11-07T11:45:53.841Z,53.41
2022-11-07T11:48:24.578Z,53.38
2022-11-07T11:51:03.746Z,53.23
2022-11-07T11:53:30.518Z,53.74
2022-11-07T11:56:02.883Z,53.76
2022-11-07T11:58:57.717Z,53.73
2022-11-07T12:01:53.733Z,53.98
2022-11-07T12:04:41.039Z,53.91
2022-11-07T12:07:34.926Z,54.10
2022-11-07T12:10:08.168Z,54.39
2022-11-07T12:13:07.563Z,54.66
2022-11-07T12:16:05.329Z,54.76
2022-11-07T12:18:45.034Z,54.84
2022-11-07T12:21:20.190Z,55.14
2022-11-07T12:24:00.063Z,55.53
2022-11-07T12:26:34.190Z,55.42
2022-11-07T12:29:03.256Z,55.94
2022-11-07T12:31:57.622Z,55.93
2022-11-07T12:34:34.346Z,55.98
2022-11-07T12:37:26.411Z,56.22
2022-11-07T12:40:29.298Z,56.32
2022-11-07T12:43:20.268Z,56.35
2022-11-07T12:46:22.037Z,56.27
2022-11-07T12:49:23.819Z,56.60
2022-11-07T12:52:19.310Z,56.68
2022-11-07T12:54:55.700Z,56.86
2022-11-07T12:57:25.455Z,56.80
2022-11-07T12:59:57.341Z,56.90
2022-11-07T13:02:50.652Z,57.06
2022-11-07T13:05:28.944Z,57.41
2022-11-07T13:08:14.928Z,57.28
2022-11-07T13:11:03.608Z,56.91
2022-11-07T13:13:54.807Z,57.53
2022-11-07T13:16:22.442Z,57.67
2022-11-07T13:18:48.781Z,57.76
2022-11-07T13:21:15.344Z,57.83
2022-11-07T13:23:41.713Z,57.96
2022-11-07T13:26:32.488Z,58.09
2022-11-07T13:28:57.541Z,57.42
2022-11-07T13:31:38.954Z,57.32
2022-11-07T13:34:24.723Z,57.26
2022-11-07T13:36:58.548Z,57.51
2022-11-07T13:39:25.476Z,57.67
2022-11-07T13:41:52.843Z,57.42
2022-11-07T13:44:28.076Z,57.49
2022-11-07T13:46:57.194Z,57.20
2022-11-07T13:49:28.039Z,57.35
2022-11-07T13:52:00.276Z,57.53
2022-11-07T13:54:54.913Z,57.49
2022-11-07T13:57:50.796Z,57.38
2022-11-07T14:00:21.015Z,57.45
2022-11-07T14:02:56.575Z,57.36
2022-11-07T14:05:29.415Z,57.25
2022-11-07T14:08:20.193Z,57.17
2022-11-07T14:10:49.251Z,57.25
2022-11-07T14:13:41.347Z,57.30
2022-11-07T14:16:20.191Z,57.31
2022-11-07T14:18:50.362Z,57.35
2022-11-07T14:21:29.545Z,57.53
2022-11-07T14:23:56.173Z,57.50
2022-11-07T14:26:33.516Z,57.15
2022-11-07T14:29:01.610Z,57.24
2022-11-07T14:31:30.921Z,57.22
2022-11-07T14:34:00.335Z,57.07
2022-11-07T14:36:28.053Z,57.05
2022-11-07T14:39:08.982Z,56.84
2022-11-07T14:41:41.612Z,56.92
2022-11-07T14:44:15.125Z,56.82
2022-11-07T14:46:42.056Z,56.69
2022-11-07T14:49:31.661Z,56.76
2022-11-07T14:51:58.385Z,56.62
2022-11-07T14:54:33.002Z,56.49
2022-11-07T14:57:00.952Z,56.42
2022-11-07T14:59:33.213Z,56.21
2022-11-07T15:02:10.484Z,56.06
2022-11-07T15:04:43.131Z,56.04
2022-11-07T15:07:31.081Z,56.20
2022-11-07T15:10:10.556Z,55.84
2022-11-07T15:12:49.863Z,55.94
2022-11-07T15:15:23.150Z,55.82
2022-11-07T15:17:52.688Z,55.75
2022-11-07T15:20:35.852Z,55.69
2022-11-07T15:23:14.479Z,55.76
2022-11-07T15:25:51.205Z,55.65
2022-11-07T15:28:17.782Z,55.81
2022-11-07T15:30:45.987Z,55.74
2022-11-07T15:33:13.773Z,55.92
2022-11-07T15:35:44.696Z,55.52
2022-11-07T15:38:21.034Z,55.46
2022-11-07T15:40:47.994Z,55.87
2022-11-07T15:43:14.775Z,55.46
2022-11-07T15:45:42.108Z,55.28
2022-11-07T15:48:12.635Z,55.68
2022-11-07T15:50:42.808Z,55.51
2022-11-07T15:53:22.991Z,55.85
2022-11-07T15:56:00.501Z,55.62
2022-11-07T15:58:29.297Z,55.44
2022-11-07T16:00:57.686Z,55.67
2022-11-07T16:03:25.661Z,55.56
2022-11-07T16:05:54.537Z,55.62
2022-11-07T16:08:23.763Z,55.62
2022-11-07T16:10:53.457Z,55.85
2022-11-07T16:13:20.237Z,55.79
2022-11-07T16:15:53.226Z,55.79
2022-11-07T16:18:21.670Z,55.83
2022-11-07T16:20:49.132Z,55.71
2022-11-07T16:23:16.694Z,55.92
2022-11-07T16:25:46.005Z,55.70
2022-11-07T16:28:26.354Z,55.87
2022-11-07T16:30:53.324Z,55.74
2022-11-07T16:33:20.279Z,55.80
2022-11-07T16:35:52.796Z,55.73
2022-11-07T16:38:21.030Z,55.92
2022-11-07T16:40:47.630Z,55.96
2022-11-07T16:43:14.345Z,55.88
2022-11-07T16:45:53.128Z,55.64
2022-11-07T16:48:19.505Z,55.77
2022-11-07T16:50:46.240Z,55.63
2022-11-07T16:53:13.288Z,55.88
2022-11-07T16:55:42.991Z,55.54
2022-11-07T16:58:24.678Z,55.59
2022-11-07T17:00:52.540Z,55.75
2022-11-07T17:03:19.621Z,55.65
2022-11-07T17:05:47.080Z,55.58
2022-11-07T17:08:22.758Z,55.63
2022-11-07T17:10:49.138Z,55.66
2022-11-07T17:13:16.215Z,55.89
2022-11-07T17:15:43.230Z,55.50
2022-11-07T17:18:24.240Z,55.81
2022-11-07T17:20:53.672Z,55.76
2022-11-07T17:23:25.365Z,55.63
2022-11-07T17:25:55.364Z,55.62
2022-11-07T17:28:22.211Z,55.79
2022-11-07T17:30:48.553Z,55.64
2022-11-07T17:33:14.959Z,55.66
2022-11-07T17:35:41.572Z,55.89
2022-11-07T17:38:16.117Z,55.74
2022-11-07T17:40:42.853Z,55.37
2022-11-07T17:43:09.425Z,55.73
2022-11-07T17:45:36.413Z,55.88
2022-11-07T17:48:02.836Z,55.89
2022-11-07T17:50:29.563Z,55.87
2022-11-07T17:52:55.929Z,55.69
2022-11-07T17:55:22.325Z,55.81
2022-11-07T17:57:48.775Z,55.60
2022-11-07T18:00:21.337Z,55.85
2022-11-07T18:02:49.911Z,55.80
2022-11-07T18:05:18.422Z,56.10
2022-11-07T18:07:45.434Z,56.19
2022-11-07T18:10:15.280Z,56.28
2022-11-07T18:12:42.782Z,56.15
2022-11-07T18:15:12.888Z,56.34
2022-11-07T18:17:40.278Z,56.32
2022-11-07T18:20:08.156Z,56.31
2022-11-07T18:22:36.651Z,56.38
2022-11-07T18:25:04.599Z,56.24
2022-11-07T18:27:31.158Z,56.41
2022-11-07T18:29:57.547Z,56.40
2022-11-07T18:32:24.734Z,56.59
2022-11-07T18:34:51.282Z,56.71
2022-11-07T18:37:18.779Z,56.71
2022-11-07T18:39:45.209Z,56.78
2022-11-07T18:42:11.752Z,56.65
2022-11-07T18:44:38.173Z,56.56
2022-11-07T18:47:04.566Z,56.77
2022-11-07T18:49:31.102Z,56.72
2022-11-07T18:51:57.522Z,57.03
2022-11-07T18:54:26.144Z,56.95
2022-11-07T18:56:52.840Z,56.81
2022-11-07T18:59:19.295Z,56.90
2022-11-07T19:01:46.015Z,57.19
2022-11-07T19:04:12.699Z,56.75
2022-11-07T19:06:55.555Z,56.71
2022-11-07T19:09:30.035Z,57.14
2022-11-07T19:11:58.025Z,56.73
2022-11-07T19:14:25.695Z,56.86
2022-11-07T19:16:52.556Z,56.97
2022-11-07T19:19:18.960Z,56.64
2022-11-07T19:21:45.350Z,56.71
2022-11-07T19:24:12.816Z,56.76
2022-11-07T19:26:39.541Z,56.86
2022-11-07T19:29:06.558Z,56.84
2022-11-07T19:31:34.891Z,57.54
2022-11-07T19:34:01.630Z,57.07
2022-11-07T19:36:28.168Z,57.16
2022-11-07T19:38:54.576Z,56.80
2022-11-07T19:41:20.990Z,56.76
2022-11-07T19:43:50.883Z,56.96
2022-11-07T19:46:20.238Z,56.86
2022-11-07T19:48:47.719Z,56.88
2022-11-07T19:51:21.199Z,56.75
2022-11-07T19:53:55.813Z,56.84
2022-11-07T19:56:23.784Z,56.79
2022-11-07T19:58:50.424Z,57.07
2022-11-07T20:01:24.245Z,56.79
2022-11-07T20:03:52.396Z,57.04
2022-11-07T20:06:21.903Z,56.90
2022-11-07T20:08:48.742Z,56.93
2022-11-07T20:11:16.918Z,56.89
2022-11-07T20:13:43.860Z,57.00
2022-11-07T20:16:10.518Z,56.95
2022-11-07T20:18:38.427Z,57.04
2022-11-07T20:21:10.361Z,57.18
2022-11-07T20:23:36.747Z,56.95
2022-11-07T20:26:10.731Z,56.97
2022-11-07T20:28:39.508Z,57.13
2022-11-07T20:31:17.568Z,56.81
2022-11-07T20:33:44.208Z,56.96
2022-11-07T20:36:13.205Z,56.75
2022-11-07T20:38:40.247Z,56.96
2022-11-07T20:41:07.286Z,56.82
2022-11-07T20:43:34.123Z,56.71
2022-11-07T20:46:09.477Z,56.67
2022-11-07T20:48:36.502Z,56.82
2022-11-07T20:51:10.823Z,56.77
2022-11-07T20:53:46.706Z,56.63
2022-11-07T20:56:15.091Z,56.59
2022-11-07T20:58:42.830Z,56.71
2022-11-07T21:01:13.804Z,56.59
2022-11-07T21:03:40.445Z,56.60
2022-11-07T21:06:11.217Z,56.73
2022-11-07T21:08:38.949Z,56.73
2022-11-07T21:11:05.489Z,56.79
2022-11-07T21:13:31.971Z,56.86
2022-11-07T21:15:58.389Z,56.81
2022-11-07T21:18:24.898Z,56.58
2022-11-07T21:20:51.549Z,56.82
2022-11-07T21:23:18.332Z,56.72
2022-11-07T21:25:47.802Z,56.72
2022-11-07T21:28:17.093Z,56.73
2022-11-07T21:31:04.245Z,56.45
2022-11-07T21:33:31.650Z,56.54
2022-11-07T21:35:58.004Z,56.86
2022-11-07T21:38:24.837Z,56.70
2022-11-07T21:40:52.202Z,56.64
2022-11-07T21:43:19.567Z,56.63
2022-11-07T21:45:46.266Z,56.77
2022-11-07T21:48:12.847Z,56.80
2022-11-07T21:50:44.669Z,56.54
2022-11-07T21:53:11.929Z,56.62
2022-11-07T21:55:38.307Z,56.90
2022-11-07T21:58:04.706Z,56.91
2022-11-07T22:00:35.899Z,56.62
2022-11-07T22:03:02.857Z,56.68
2022-11-07T22:05:29.199Z,56.44
2022-11-07T22:07:55.565Z,56.37
2022-11-07T22:10:21.934Z,56.55
2022-11-07T22:12:48.327Z,56.29
2022-11-07T22:15:14.799Z,56.32
2022-11-07T22:17:41.181Z,56.29
2022-11-07T22:20:08.285Z,56.43
2022-11-07T22:22:36.105Z,56.55
2022-11-07T22:25:02.506Z,56.69
2022-11-07T22:27:28.895Z,56.63
2022-11-07T22:29:55.577Z,56.85
2022-11-07T22:32:21.979Z,57.02
2022-11-07T22:34:48.343Z,57.17
2022-11-07T22:37:14.717Z,57.29
2022-11-07T22:39:41.057Z,56.80
2022-11-07T22:42:07.446Z,57.23
2022-11-07T22:44:33.823Z,57.22
2022-11-07T22:47:00.176Z,57.67
2022-11-07T22:49:26.596Z,57.62
2022-11-07T22:51:52.984Z,57.60
2022-11-07T22:54:19.385Z,57.53
2022-11-07T22:56:45.750Z,57.70
2022-11-07T22:59:12.131Z,57.12
2022-11-07T23:01:40.544Z,57.48
2022-11-07T23:04:10.056Z,57.39
2022-11-07T23:06:36.458Z,57.51
2022-11-07T23:09:02.860Z,57.72
2022-11-07T23:11:48.828Z,57.59
2022-11-07T23:14:18.370Z,57.75
2022-11-07T23:16:48.177Z,57.76
2022-11-07T23:19:16.192Z,57.92
2022-11-07T23:21:43.103Z,58.02
2022-11-07T23:24:10.304Z,58.15
2022-11-07T23:26:36.818Z,58.12
2022-11-07T23:29:23.861Z,58.21
2022-11-07T23:31:51.653Z,58.47
2022-11-07T23:34:19.291Z,58.58
2022-11-07T23:36:45.753Z,58.52
2022-11-07T23:39:17.892Z,58.99
2022-11-07T23:41:44.703Z,58.81
2022-11-07T23:44:11.394Z,58.85
2022-11-07T23:46:56.580Z,58.99
2022-11-07T23:49:41.417Z,58.89
2022-11-07T23:52:08.058Z,59.14
2022-11-07T23:55:00.550Z,59.35
2022-11-07T23:57:27.187Z,59.46
